Time;durP1;ratioP1;P1;durP2;ratioP2;P2;SDS_P1;SDS_P2;PMS_P1;PMS_P2;Temp;Humidity;BMP_temperature;BMP_pressure;BME280_temperature;BME280_humidity;BME280_pressure;Samples;Min_cycle;Max_cycle;Signal;HPM_P1;HPM_P2
2021/10/05 00:00:14;;;;;;;2.00;0.82;;;12.60;78.00;;;;;;5096428;28;20403;-73
2021/10/05 00:02:40;;;;;;;2.67;1.10;;;12.60;78.00;;;;;;5114710;28;20028;-74
2021/10/05 00:05:07;;;;;;;1.63;1.02;;;12.60;78.10;;;;;;5096301;28;20031;-74
2021/10/05 00:07:33;;;;;;;4.45;1.00;;;12.60;78.10;;;;;;5114574;28;20072;-74
2021/10/05 00:09:59;;;;;;;1.60;0.82;;;12.60;78.10;;;;;;5095357;28;20031;-74
2021/10/05 00:12:25;;;;;;;2.10;1.20;;;12.50;78.10;;;;;;5114231;28;20110;-74
2021/10/05 00:14:51;;;;;;;2.20;1.10;;;12.50;78.10;;;;;;5096002;28;20136;-74
2021/10/05 00:17:18;;;;;;;2.15;1.10;;;12.50;78.20;;;;;;5096103;28;20027;-74
2021/10/05 00:19:44;;;;;;;1.58;0.77;;;12.50;78.30;;;;;;5095806;28;20032;-73
2021/10/05 00:22:10;;;;;;;1.15;0.88;;;12.50;78.20;;;;;;5095918;28;20513;-75
2021/10/05 00:24:35;;;;;;;3.00;1.00;;;12.50;78.20;;;;;;5095963;28;20016;-73
2021/10/05 00:27:01;;;;;;;4.10;1.13;;;12.50;78.30;;;;;;5095838;28;20020;-74
2021/10/05 00:29:27;;;;;;;1.48;0.85;;;12.50;78.30;;;;;;5095750;28;20035;-74
2021/10/05 00:31:52;;;;;;;1.17;0.77;;;12.50;78.30;;;;;;5114090;28;20502;-74
2021/10/05 00:34:18;;;;;;;2.25;0.93;;;12.50;78.30;;;;;;5095570;28;20035;-74
2021/10/05 00:36:43;;;;;;;4.30;1.10;;;12.50;78.30;;;;;;5095775;28;20035;-73
2021/10/05 00:39:09;;;;;;;2.00;0.90;;;12.50;78.30;;;;;;5095387;28;20115;-74
2021/10/05 00:41:35;;;;;;;1.65;0.80;;;12.50;78.30;;;;;;5113829;28;20035;-73
2021/10/05 00:44:01;;;;;;;2.60;0.98;;;12.50;78.30;;;;;;5113891;28;20027;-74
2021/10/05 00:46:27;;;;;;;2.67;1.00;;;12.50;78.40;;;;;;5113820;28;20027;-73
2021/10/05 00:48:54;;;;;;;2.10;0.90;;;12.50;78.50;;;;;;5095478;28;20024;-74
2021/10/05 00:51:22;;;;;;;2.38;0.93;;;12.40;78.40;;;;;;5113755;28;20040;-74
2021/10/05 00:53:48;;;;;;;2.25;1.08;;;12.40;78.40;;;;;;5095533;28;20026;-74
2021/10/05 00:56:14;;;;;;;0.98;0.68;;;12.40;78.50;;;;;;5095396;28;20102;-73
2021/10/05 00:58:39;;;;;;;0.65;0.60;;;12.40;78.50;;;;;;5095374;28;20063;-74
2021/10/05 01:01:05;;;;;;;2.53;0.80;;;12.40;78.50;;;;;;5113518;28;20035;-74
2021/10/05 01:03:31;;;;;;;2.95;1.08;;;12.40;78.60;;;;;;5095282;28;20058;-74
2021/10/05 01:05:56;;;;;;;0.93;0.70;;;12.40;78.60;;;;;;5095118;28;20028;-74
2021/10/05 01:08:22;;;;;;;1.17;0.70;;;12.40;78.60;;;;;;5095224;28;20476;-74
2021/10/05 01:10:48;;;;;;;2.58;1.10;;;12.40;78.70;;;;;;5095209;28;20032;-74
2021/10/05 01:13:14;;;;;;;3.47;0.93;;;12.30;78.70;;;;;;5095140;28;20042;-74
2021/10/05 01:15:39;;;;;;;2.92;1.08;;;12.30;78.70;;;;;;5095168;28;20034;-74
2021/10/05 01:18:05;;;;;;;2.92;0.90;;;12.30;78.70;;;;;;5113411;28;20032;-74
2021/10/05 01:20:45;;;;;;;1.30;0.90;;;12.30;78.70;;;;;;5094828;28;20024;-74
2021/10/05 01:23:11;;;;;;;2.90;0.80;;;12.30;78.70;;;;;;5095081;28;20028;-73
2021/10/05 01:25:36;;;;;;;1.83;0.85;;;12.30;78.80;;;;;;5113260;28;20416;-74
2021/10/05 01:28:02;;;;;;;1.50;0.90;;;12.30;78.80;;;;;;5113221;28;20069;-74
2021/10/05 01:30:28;;;;;;;2.78;1.10;;;12.30;78.90;;;;;;5113223;28;20028;-74
2021/10/05 01:32:55;;;;;;;2.55;1.10;;;12.30;78.90;;;;;;5091691;28;20063;-73
2021/10/05 01:35:21;;;;;;;3.20;0.98;;;12.20;78.90;;;;;;5108782;28;20023;-73
2021/10/05 01:37:46;;;;;;;1.95;1.00;;;12.20;79.60;;;;;;5113207;28;20062;-74
2021/10/05 01:40:12;;;;;;;1.10;0.90;;;12.20;79.00;;;;;;5113080;28;20472;-74
2021/10/05 01:42:38;;;;;;;2.42;0.90;;;12.20;79.10;;;;;;5113191;28;20026;-74
2021/10/05 01:45:05;;;;;;;2.13;1.02;;;12.20;79.10;;;;;;5095064;28;20471;-74
2021/10/05 01:47:30;;;;;;;3.78;0.73;;;12.20;79.20;;;;;;5094730;28;20070;-73
2021/10/05 01:49:56;;;;;;;0.95;0.80;;;12.20;79.20;;;;;;5094694;28;20048;-73
2021/10/05 01:52:23;;;;;;;2.83;1.10;;;12.20;79.30;;;;;;5113040;28;20027;-73
2021/10/05 01:54:48;;;;;;;3.38;1.40;;;12.10;79.20;;;;;;5113090;28;20024;-73
2021/10/05 01:57:14;;;;;;;2.75;0.93;;;12.10;79.30;;;;;;5094748;28;20387;-73
2021/10/05 01:59:40;;;;;;;1.98;0.90;;;12.10;79.40;;;;;;5112810;28;20031;-73
2021/10/05 02:02:06;;;;;;;3.08;1.00;;;12.10;79.40;;;;;;5112903;28;20024;-74
2021/10/05 02:04:31;;;;;;;1.58;0.80;;;12.10;79.50;;;;;;5094675;28;20012;-73
2021/10/05 02:07:53;;;;;;;2.55;1.05;;;12.10;79.60;;;;;;5094652;28;20073;-74
2021/10/05 02:10:18;;;;;;;2.72;1.00;;;12.00;79.60;;;;;;5094420;28;20020;-73
2021/10/05 02:12:44;;;;;;;1.90;0.90;;;12.00;79.60;;;;;;5112816;28;20011;-73
2021/10/05 02:15:10;;;;;;;1.52;1.00;;;12.00;79.70;;;;;;5112770;28;20164;-73
2021/10/05 02:17:36;;;;;;;2.55;1.05;;;12.10;80.40;;;;;;5112780;28;20020;-73
2021/10/05 02:20:02;;;;;;;1.25;0.90;;;12.00;79.80;;;;;;5094467;28;20028;-73
2021/10/05 02:22:28;;;;;;;2.47;0.98;;;12.00;79.80;;;;;;5094404;28;20015;-73
2021/10/05 02:24:56;;;;;;;1.65;0.90;;;12.00;79.80;;;;;;5094471;28;20028;-74
2021/10/05 02:27:21;;;;;;;1.55;1.00;;;12.00;79.90;;;;;;5094402;28;20019;-73
2021/10/05 02:29:47;;;;;;;1.98;1.20;;;12.00;79.90;;;;;;5112655;28;20077;-73
2021/10/05 02:32:13;;;;;;;2.58;1.00;;;12.00;79.90;;;;;;5095431;28;20024;-73
2021/10/05 02:34:40;;;;;;;3.65;1.00;;;12.00;80.00;;;;;;5098045;28;20051;-74
2021/10/05 02:37:06;;;;;;;2.17;1.10;;;12.00;80.00;;;;;;5097992;28;20053;-74
2021/10/05 02:39:32;;;;;;;1.67;0.88;;;12.00;80.00;;;;;;5097954;28;20024;-74
2021/10/05 02:41:58;;;;;;;1.50;1.23;;;12.00;80.10;;;;;;5097935;28;20015;-74
2021/10/05 02:44:25;;;;;;;2.45;1.38;;;12.00;80.10;;;;;;5097837;28;20398;-74
2021/10/05 02:46:51;;;;;;;2.72;0.85;;;12.00;80.20;;;;;;5097761;28;20386;-74
2021/10/05 02:49:17;;;;;;;2.20;0.98;;;12.00;80.20;;;;;;5097624;28;20036;-74
2021/10/05 02:51:43;;;;;;;2.50;1.00;;;12.00;80.30;;;;;;5097753;28;20106;-74
2021/10/05 02:54:09;;;;;;;1.20;0.95;;;12.00;80.30;;;;;;5115881;28;20570;-74
2021/10/05 02:56:34;;;;;;;1.05;0.77;;;12.00;80.40;;;;;;5097729;28;20027;-74
2021/10/05 02:59:00;;;;;;;3.05;1.10;;;11.90;80.40;;;;;;5097490;28;20391;-74
2021/10/05 03:01:26;;;;;;;2.47;1.30;;;11.90;80.40;;;;;;5097515;28;20049;-74
2021/10/05 03:03:51;;;;;;;1.00;0.90;;;11.90;80.50;;;;;;5097441;28;20467;-74
2021/10/05 03:06:17;;;;;;;1.30;1.02;;;11.90;80.60;;;;;;5115727;28;20016;-74
2021/10/05 03:08:46;;;;;;;2.47;1.00;;;11.90;80.60;;;;;;5115659;28;20486;-73
2021/10/05 03:11:12;;;;;;;3.40;1.15;;;11.90;80.60;;;;;;5097340;28;20026;-73
2021/10/05 03:13:39;;;;;;;3.00;1.17;;;11.90;80.70;;;;;;5097316;28;20020;-73
2021/10/05 03:16:06;;;;;;;1.95;1.10;;;11.80;80.80;;;;;;5115572;28;20028;-73
2021/10/05 03:18:32;;;;;;;2.00;1.23;;;11.90;80.90;;;;;;5097215;28;20022;-72
2021/10/05 03:20:58;;;;;;;1.20;1.10;;;11.80;80.80;;;;;;5115360;28;20024;-73
2021/10/05 03:23:24;;;;;;;2.58;1.30;;;11.80;80.90;;;;;;5096968;28;20016;-72
2021/10/05 03:25:50;;;;;;;2.60;1.45;;;11.80;81.00;;;;;;5115251;28;20020;-73
2021/10/05 03:28:15;;;;;;;2.28;1.40;;;11.80;81.00;;;;;;5096984;28;20477;-73
2021/10/05 03:30:41;;;;;;;1.58;1.17;;;11.80;81.10;;;;;;5096993;28;20030;-73
2021/10/05 03:33:06;;;;;;;3.85;1.02;;;11.80;81.20;;;;;;5096933;28;20015;-73
2021/10/05 03:35:32;;;;;;;2.22;1.30;;;11.70;81.10;;;;;;5096896;28;20038;-73
2021/10/05 03:37:58;;;;;;;1.85;1.10;;;11.80;81.20;;;;;;5115097;28;20027;-73
2021/10/05 03:40:23;;;;;;;2.50;1.35;;;11.80;81.30;;;;;;5097172;28;20016;-74
2021/10/05 03:42:49;;;;;;;2.38;1.30;;;11.80;81.40;;;;;;5096742;28;20020;-73
2021/10/05 03:45:15;;;;;;;2.00;1.17;;;11.70;81.40;;;;;;5096614;28;20143;-73
2021/10/05 03:47:40;;;;;;;1.55;1.30;;;11.70;81.30;;;;;;5096552;28;20023;-75
2021/10/05 03:50:08;;;;;;;1.65;1.35;;;11.70;81.30;;;;;;5096320;28;20135;-73
2021/10/05 03:52:35;;;;;;;2.22;1.35;;;11.70;81.40;;;;;;5096441;28;20475;-73
2021/10/05 03:55:00;;;;;;;4.30;1.60;;;11.70;81.40;;;;;;5114790;28;20028;-73
2021/10/05 03:57:26;;;;;;;2.38;1.48;;;11.70;81.50;;;;;;5096433;28;20027;-73
2021/10/05 03:59:52;;;;;;;3.05;1.60;;;11.70;81.60;;;;;;5114629;28;20111;-73
2021/10/05 04:02:17;;;;;;;2.92;1.70;;;11.60;81.60;;;;;;5114604;28;20055;-73
2021/10/05 04:04:43;;;;;;;5.15;2.13;;;11.60;81.60;;;;;;5096359;28;20040;-73
2021/10/05 04:07:08;;;;;;;3.30;1.88;;;11.60;81.70;;;;;;5114567;28;20072;-73
2021/10/05 04:09:34;;;;;;;2.22;1.60;;;11.60;81.80;;;;;;5114570;28;20062;-73
2021/10/05 04:12:00;;;;;;;2.42;1.70;;;11.60;81.80;;;;;;5114401;28;20028;-74
2021/10/05 04:14:25;;;;;;;2.92;1.70;;;11.50;81.80;;;;;;5096242;28;20031;-73
2021/10/05 04:20:13;;;;;;;3.03;1.80;;;11.50;82.00;;;;;;5114524;28;20378;-73
2021/10/05 04:22:39;;;;;;;2.88;1.80;;;11.50;82.00;;;;;;5114259;28;20016;-73
2021/10/05 04:25:06;;;;;;;3.97;1.60;;;11.50;82.00;;;;;;5096025;28;20027;-74
2021/10/05 04:27:33;;;;;;;5.22;2.20;;;11.50;82.10;;;;;;5095909;28;20111;-73
2021/10/05 04:29:59;;;;;;;2.80;1.63;;;11.50;82.20;;;;;;5114141;28;20031;-73
2021/10/05 04:32:25;;;;;;;3.15;1.80;;;11.50;82.20;;;;;;5095737;28;20035;-73
2021/10/05 04:34:50;;;;;;;4.55;1.77;;;11.40;82.20;;;;;;5113910;28;20471;-74
2021/10/05 04:37:17;;;;;;;3.30;1.80;;;11.50;82.30;;;;;;5095608;28;20042;-72
2021/10/05 04:39:43;;;;;;;3.05;1.70;;;11.50;82.30;;;;;;5095657;28;20032;-73
2021/10/05 04:42:09;;;;;;;2.40;1.80;;;11.50;82.30;;;;;;5095574;28;20118;-73
2021/10/05 04:44:34;;;;;;;3.03;1.77;;;11.50;82.30;;;;;;5095544;28;20018;-73
2021/10/05 04:47:00;;;;;;;2.80;1.50;;;11.50;82.30;;;;;;5095599;28;20019;-73
2021/10/05 04:49:26;;;;;;;2.58;1.85;;;11.50;82.40;;;;;;5113583;28;20070;-74
2021/10/05 04:51:51;;;;;;;4.05;2.00;;;11.50;82.40;;;;;;5095384;28;20055;-74
2021/10/05 04:54:17;;;;;;;3.55;1.98;;;11.50;82.50;;;;;;5113375;28;20027;-74
2021/10/05 04:56:43;;;;;;;3.10;2.17;;;11.50;82.50;;;;;;5113450;28;20023;-74
2021/10/05 04:59:09;;;;;;;5.43;2.42;;;11.50;82.50;;;;;;5095597;28;20065;-73
2021/10/05 05:01:35;;;;;;;4.22;2.22;;;11.50;82.50;;;;;;5095345;28;20019;-74
2021/10/05 05:04:00;;;;;;;4.63;2.80;;;11.50;82.60;;;;;;5095321;28;20031;-73
2021/10/05 05:06:26;;;;;;;3.63;2.45;;;11.50;82.70;;;;;;5113453;28;20020;-74
2021/10/05 05:08:51;;;;;;;4.00;2.80;;;11.50;82.70;;;;;;5113529;28;20062;-73
2021/10/05 05:11:17;;;;;;;3.53;2.50;;;11.50;82.70;;;;;;5094997;28;20115;-72
2021/10/05 05:13:43;;;;;;;3.30;2.65;;;11.40;82.70;;;;;;5095062;28;20028;-73
2021/10/05 05:16:08;;;;;;;3.85;2.63;;;11.40;82.70;;;;;;5095116;28;20033;-73
2021/10/05 05:18:35;;;;;;;3.60;2.47;;;11.40;82.80;;;;;;5113384;28;20024;-73
2021/10/05 05:21:01;;;;;;;3.55;2.40;;;11.40;82.80;;;;;;5094984;28;20391;-73
2021/10/05 05:23:27;;;;;;;3.97;2.67;;;11.40;82.90;;;;;;5094936;28;20022;-73
2021/10/05 05:25:52;;;;;;;3.08;2.45;;;11.40;82.90;;;;;;5094987;28;20471;-73
2021/10/05 05:28:20;;;;;;;3.80;2.78;;;11.40;83.00;;;;;;5095000;28;20156;-72
2021/10/05 05:30:45;;;;;;;3.25;2.60;;;11.30;83.00;;;;;;5113159;28;20023;-72
2021/10/05 05:33:11;;;;;;;3.42;3.00;;;11.30;83.00;;;;;;5113592;28;20030;-74
2021/10/05 05:35:36;;;;;;;2.75;2.40;;;11.30;83.10;;;;;;5094857;28;20038;-73
2021/10/05 05:38:02;;;;;;;2.90;2.35;;;11.30;83.10;;;;;;5113219;28;20099;-74
2021/10/05 05:40:28;;;;;;;3.45;2.55;;;11.30;83.20;;;;;;5094826;28;20027;-74
2021/10/05 05:42:53;;;;;;;4.60;2.80;;;11.30;83.20;;;;;;5110147;28;20133;-75
2021/10/05 05:45:20;;;;;;;3.08;2.40;;;11.30;83.30;;;;;;5094853;28;20031;-74
2021/10/05 05:47:46;;;;;;;4.43;2.75;;;11.30;83.30;;;;;;5113178;28;20107;-74
2021/10/05 05:50:11;;;;;;;5.65;3.97;;;11.30;83.30;;;;;;5094710;28;20079;-74
2021/10/05 05:52:37;;;;;;;4.68;3.72;;;11.30;83.40;;;;;;5109997;28;20111;-74
2021/10/05 05:58:25;;;;;;;4.60;3.20;;;11.30;83.50;;;;;;5113356;28;20030;-74
2021/10/05 06:00:50;;;;;;;4.95;3.38;;;11.30;83.40;;;;;;5094633;28;20472;-74
2021/10/05 06:03:16;;;;;;;7.32;3.13;;;11.30;83.50;;;;;;5094744;28;20016;-74
2021/10/05 06:05:43;;;;;;;5.93;3.30;;;11.30;83.50;;;;;;5112899;28;20027;-75
2021/10/05 06:08:08;;;;;;;4.80;4.05;;;11.30;83.50;;;;;;5097355;28;20020;-73
2021/10/05 06:10:34;;;;;;;6.18;3.85;;;11.20;83.50;;;;;;5098508;28;20077;-74
2021/10/05 06:13:01;;;;;;;5.47;3.53;;;11.20;83.50;;;;;;5098568;28;20118;-75
2021/10/05 06:15:27;;;;;;;5.53;3.85;;;11.30;83.70;;;;;;5095764;28;20031;-74
2021/10/05 06:17:53;;;;;;;5.25;3.70;;;11.30;83.70;;;;;;5098363;28;20502;-75
2021/10/05 06:20:23;;;;;;;4.75;3.72;;;11.30;83.70;;;;;;5116667;28;20043;-74
2021/10/05 06:22:50;;;;;;;7.50;4.07;;;11.30;83.70;;;;;;5098483;28;20019;-74
2021/10/05 06:28:38;;;;;;;5.53;3.55;;;11.30;83.80;;;;;;5116895;28;20528;-74
2021/10/05 06:31:04;;;;;;;5.20;3.80;;;11.30;83.70;;;;;;5098162;28;20016;-74
2021/10/05 06:33:30;;;;;;;5.93;3.58;;;11.30;83.70;;;;;;5098124;28;20118;-74
2021/10/05 06:39:17;;;;;;;5.93;3.60;;;11.30;83.80;;;;;;5116689;28;20115;-74
2021/10/05 06:41:43;;;;;;;5.07;3.78;;;11.30;83.70;;;;;;5098035;28;20047;-73
2021/10/05 06:44:09;;;;;;;4.32;3.53;;;11.30;83.70;;;;;;5097625;28;20051;-74
2021/10/05 06:46:34;;;;;;;3.97;3.50;;;11.40;83.80;;;;;;5097943;28;20016;-75
2021/10/05 06:49:00;;;;;;;3.95;3.25;;;11.40;83.80;;;;;;5097724;28;20050;-73
2021/10/05 06:51:25;;;;;;;3.45;3.10;;;11.40;83.80;;;;;;5115987;28;20023;-75
2021/10/05 06:53:52;;;;;;;4.80;3.55;;;11.40;83.70;;;;;;5097754;28;20023;-75
2021/10/05 06:56:18;;;;;;;6.35;3.33;;;11.50;83.80;;;;;;5115997;28;20073;-74
2021/10/05 06:58:43;;;;;;;3.70;3.03;;;11.50;83.70;;;;;;5116080;28;20378;-73
2021/10/05 07:01:09;;;;;;;5.57;3.50;;;11.50;83.70;;;;;;5097532;28;20032;-74
2021/10/05 07:03:34;;;;;;;4.80;3.50;;;11.60;83.70;;;;;;5112832;28;20107;-74
2021/10/05 07:06:00;;;;;;;4.65;3.13;;;11.60;83.70;;;;;;5115796;28;20076;-75
2021/10/05 07:08:26;;;;;;;4.35;3.20;;;11.70;83.70;;;;;;5094598;28;20069;-75
2021/10/05 07:10:51;;;;;;;4.93;3.22;;;11.70;83.70;;;;;;5097531;28;20031;-74
2021/10/05 07:13:17;;;;;;;3.83;3.00;;;11.70;83.60;;;;;;5115840;28;20055;-75
2021/10/05 07:15:42;;;;;;;5.03;3.13;;;11.80;83.60;;;;;;5097343;28;20033;-74
2021/10/05 07:18:08;;;;;;;3.35;3.03;;;11.90;83.80;;;;;;5096873;28;20012;-75
2021/10/05 07:20:34;;;;;;;3.83;3.15;;;11.90;83.70;;;;;;5097062;28;20032;-76
2021/10/05 07:23:00;;;;;;;3.40;3.10;;;12.00;83.80;;;;;;5115532;28;20341;-74
2021/10/05 07:25:30;;;;;;;3.63;2.65;;;12.00;83.70;;;;;;5097068;28;20506;-75
2021/10/05 07:27:56;;;;;;;3.85;2.80;;;12.10;83.70;;;;;;5115355;28;20027;-75
2021/10/05 07:30:23;;;;;;;3.88;2.95;;;12.20;83.90;;;;;;5112282;28;20506;-75
2021/10/05 07:32:58;;;;;;;4.55;3.25;;;12.20;83.90;;;;;;5094241;28;20475;-74
2021/10/05 07:38:46;;;;;;;3.05;2.65;;;12.30;83.70;;;;;;5115530;28;20030;-75
2021/10/05 07:41:12;;;;;;;3.88;2.88;;;12.40;83.50;;;;;;5096764;28;20019;-74
2021/10/05 07:47:00;;;;;;;3.80;2.90;;;12.60;83.30;;;;;;5115421;28;20509;-74
2021/10/05 07:49:26;;;;;;;3.88;2.63;;;12.70;83.40;;;;;;5096552;28;20441;-75
2021/10/05 07:55:15;;;;;;;3.70;2.42;;;12.80;83.70;;;;;;5115263;28;20033;-75
2021/10/05 07:57:42;;;;;;;3.05;2.60;;;12.80;83.70;;;;;;5096584;28;20030;-74
2021/10/05 08:00:09;;;;;;;4.57;2.88;;;12.80;83.60;;;;;;5096312;28;20191;-74
2021/10/05 08:02:35;;;;;;;4.05;3.38;;;12.80;84.10;;;;;;5114742;28;20099;-74
2021/10/05 08:05:01;;;;;;;2.60;2.40;;;12.80;84.00;;;;;;5096523;28;20043;-74
2021/10/05 08:07:27;;;;;;;2.88;2.35;;;12.80;85.30;;;;;;5114609;28;20063;-74
2021/10/05 08:09:57;;;;;;;3.55;2.42;;;12.80;85.30;;;;;;5096160;28;20031;-74
2021/10/05 08:12:24;;;;;;;4.25;2.75;;;12.80;85.40;;;;;;5096098;28;20050;-74
2021/10/05 08:14:51;;;;;;;2.83;2.55;;;12.80;85.00;;;;;;5114386;28;20080;-74
2021/10/05 08:17:17;;;;;;;4.20;2.80;;;12.90;85.00;;;;;;5095996;28;20070;-74
2021/10/05 08:19:43;;;;;;;4.43;2.80;;;12.90;84.80;;;;;;5096120;28;20475;-74
2021/10/05 08:22:10;;;;;;;3.08;2.55;;;13.00;84.60;;;;;;5114274;28;20091;-74
2021/10/05 08:24:36;;;;;;;3.20;1.80;;;13.00;84.40;;;;;;5114265;28;20019;-73
2021/10/05 08:30:24;;;;;;;2.47;1.88;;;13.20;85.10;;;;;;5113449;28;20093;-74
2021/10/05 08:32:50;;;;;;;2.75;1.70;;;13.30;85.00;;;;;;5095866;28;20474;-74
2021/10/05 08:35:17;;;;;;;3.35;1.88;;;13.30;85.10;;;;;;5095814;28;20020;-74
2021/10/05 08:37:42;;;;;;;2.67;2.00;;;13.40;84.80;;;;;;5114024;28;20023;-75
2021/10/05 08:40:12;;;;;;;2.50;1.92;;;13.50;85.10;;;;;;5095612;28;20028;-74
2021/10/05 08:42:37;;;;;;;2.58;2.00;;;13.50;85.20;;;;;;5095718;28;20030;-75
2021/10/05 08:45:05;;;;;;;4.88;2.47;;;13.60;85.60;;;;;;5095471;28;20114;-75
2021/10/05 08:47:31;;;;;;;2.30;2.10;;;13.60;84.90;;;;;;5095608;28;20118;-74
2021/10/05 08:49:57;;;;;;;3.20;2.50;;;13.70;85.10;;;;;;5095428;28;20478;-75
2021/10/05 08:52:23;;;;;;;2.33;2.03;;;13.80;85.20;;;;;;5095512;28;20016;-75
2021/10/05 08:54:48;;;;;;;3.33;1.70;;;13.80;85.20;;;;;;5095467;28;20028;-76
2021/10/05 08:57:14;;;;;;;4.45;2.30;;;13.80;85.50;;;;;;5095483;28;20016;-76
2021/10/05 08:59:40;;;;;;;1.83;1.65;;;13.90;85.30;;;;;;5095314;28;20031;-75
2021/10/05 09:02:14;;;;;;;1.50;1.33;;;14.00;85.20;;;;;;5095426;28;20463;-76
2021/10/05 09:04:44;;;;;;;2.58;1.75;;;14.00;85.30;;;;;;5095402;28;20139;-76
2021/10/05 09:07:25;;;;;;;2.42;1.65;;;14.10;85.90;;;;;;5113442;28;20102;-76
2021/10/05 09:09:55;;;;;;;2.05;1.67;;;14.10;85.20;;;;;;5095350;28;20061;-76
2021/10/05 09:12:25;;;;;;;3.10;1.88;;;14.20;85.40;;;;;;5095241;28;20019;-76
2021/10/05 09:14:51;;;;;;;2.65;1.80;;;14.20;84.80;;;;;;5095164;28;20119;-76
2021/10/05 09:17:23;;;;;;;1.75;1.40;;;14.20;84.60;;;;;;5095500;28;20020;-76
2021/10/05 09:19:50;;;;;;;2.35;1.70;;;14.40;84.50;;;;;;5094969;28;20483;-75
2021/10/05 09:22:18;;;;;;;3.75;1.73;;;14.40;84.30;;;;;;5095195;28;20024;-76
2021/10/05 09:24:47;;;;;;;5.13;1.95;;;14.50;84.10;;;;;;5095210;28;20098;-76
2021/10/05 09:27:13;;;;;;;2.30;1.77;;;14.60;84.00;;;;;;5094985;28;20024;-76
2021/10/05 09:29:40;;;;;;;3.03;1.70;;;14.60;83.80;;;;;;5095008;28;20024;-76
2021/10/05 09:32:19;;;;;;;1.95;1.58;;;14.70;83.50;;;;;;5113286;28;20031;-76
2021/10/05 09:34:54;;;;;;;3.08;1.33;;;14.90;83.10;;;;;;5095072;28;20030;-76
2021/10/05 09:37:24;;;;;;;1.90;1.70;;;15.00;83.00;;;;;;5113283;28;20027;-76
2021/10/05 09:43:44;;;;;;;1.92;1.40;;;15.20;82.20;;;;;;5117485;28;20043;-76
2021/10/05 09:46:16;;;;;;;1.08;1.00;;;15.20;81.90;;;;;;5098742;28;20027;-76
2021/10/05 09:48:43;;;;;;;1.73;1.30;;;15.30;82.00;;;;;;5098913;28;20050;-76
2021/10/05 09:51:17;;;;;;;1.70;1.23;;;15.40;81.70;;;;;;5096296;28;20109;-77
2021/10/05 09:53:43;;;;;;;1.67;1.40;;;15.50;81.40;;;;;;5117293;28;20053;-76
2021/10/05 09:56:12;;;;;;;1.10;1.00;;;15.60;81.10;;;;;;5099045;28;20047;-76
2021/10/05 09:58:38;;;;;;;1.95;1.27;;;15.60;81.00;;;;;;5098743;28;20016;-75
2021/10/05 10:01:04;;;;;;;2.15;1.13;;;15.70;80.70;;;;;;5098661;28;20562;-75
2021/10/05 10:03:31;;;;;;;2.90;1.23;;;15.70;80.70;;;;;;5092910;28;20032;-74
2021/10/05 10:05:58;;;;;;;1.50;0.98;;;15.80;80.60;;;;;;5098604;28;20065;-75
2021/10/05 10:08:25;;;;;;;1.30;1.10;;;15.90;80.50;;;;;;5098817;28;20016;-75
2021/10/05 10:10:50;;;;;;;2.03;1.00;;;15.90;80.30;;;;;;5116946;28;20032;-76
2021/10/05 10:13:19;;;;;;;1.08;1.00;;;16.00;80.20;;;;;;5098550;28;20024;-75
2021/10/05 10:15:46;;;;;;;2.63;1.13;;;16.00;80.00;;;;;;5098557;28;20147;-75
2021/10/05 10:18:17;;;;;;;1.40;1.02;;;16.10;79.80;;;;;;5098580;28;20052;-75
2021/10/05 10:20:53;;;;;;;2.00;1.10;;;16.20;79.50;;;;;;5116588;28;20024;-75
2021/10/05 10:23:24;;;;;;;1.17;0.90;;;16.30;79.40;;;;;;5098370;28;20410;-75
2021/10/05 10:25:58;;;;;;;1.23;0.88;;;16.30;79.10;;;;;;5116364;28;20016;-76
2021/10/05 10:28:39;;;;;;;1.95;0.93;;;16.40;78.80;;;;;;5097978;28;20023;-76
2021/10/05 10:31:11;;;;;;;0.80;0.70;;;16.50;78.50;;;;;;5098330;28;20026;-75
2021/10/05 10:33:47;;;;;;;0.88;0.88;;;16.60;78.70;;;;;;5098135;28;20034;-76
2021/10/05 10:36:14;;;;;;;1.13;0.82;;;16.60;78.10;;;;;;5098305;28;20047;-75
2021/10/05 10:38:42;;;;;;;1.58;0.90;;;16.70;77.90;;;;;;5098074;28;20032;-76
2021/10/05 10:41:18;;;;;;;1.10;1.00;;;16.80;77.70;;;;;;5098037;28;20024;-75
2021/10/05 10:43:59;;;;;;;1.70;1.00;;;16.90;77.40;;;;;;5097989;28;20042;-75
2021/10/05 10:46:27;;;;;;;1.45;0.93;;;17.00;77.10;;;;;;5116382;28;20027;-75
2021/10/05 10:48:55;;;;;;;1.30;0.90;;;17.10;76.70;;;;;;5097676;28;20019;-75
2021/10/05 10:54:51;;;;;;;1.40;1.00;;;17.30;75.70;;;;;;5116256;28;20065;-75
2021/10/05 10:57:17;;;;;;;2.65;0.95;;;17.30;75.20;;;;;;5097607;28;20020;-75
2021/10/05 10:59:43;;;;;;;2.30;0.85;;;17.40;75.00;;;;;;5097571;28;20032;-74
2021/10/05 11:02:08;;;;;;;1.10;0.82;;;17.50;75.00;;;;;;5097759;28;20024;-77
2021/10/05 11:04:34;;;;;;;1.10;0.90;;;17.60;74.70;;;;;;5097471;28;20126;-75
2021/10/05 11:07:01;;;;;;;1.30;0.98;;;17.70;74.30;;;;;;5097641;28;20399;-75
2021/10/05 11:09:32;;;;;;;1.08;0.90;;;17.80;74.10;;;;;;5097837;28;20041;-76
2021/10/05 11:11:58;;;;;;;2.47;0.95;;;17.80;73.60;;;;;;5097400;28;20020;-75
2021/10/05 11:14:28;;;;;;;1.63;1.00;;;17.80;73.50;;;;;;5115896;28;20028;-75
2021/10/05 11:17:01;;;;;;;1.63;1.02;;;17.80;73.40;;;;;;5097351;28;20055;-75
2021/10/05 11:19:32;;;;;;;2.70;0.85;;;17.70;73.50;;;;;;5097305;28;20024;-75
2021/10/05 11:22:00;;;;;;;3.17;1.17;;;17.60;73.60;;;;;;5097111;28;20016;-76
2021/10/05 11:24:46;;;;;;;1.65;0.93;;;17.50;73.80;;;;;;5115523;28;20085;-75
2021/10/05 11:27:16;;;;;;;2.35;0.98;;;17.50;73.90;;;;;;5115387;28;20030;-75
2021/10/05 11:29:42;;;;;;;1.65;0.90;;;17.50;73.90;;;;;;5097215;28;20039;-76
2021/10/05 11:32:12;;;;;;;1.42;1.17;;;17.50;73.80;;;;;;5097076;28;20414;-76
2021/10/05 11:34:40;;;;;;;2.67;0.90;;;17.50;73.60;;;;;;5115281;28;20053;-76
2021/10/05 11:37:08;;;;;;;1.13;0.90;;;17.50;73.70;;;;;;5115272;28;20051;-75
2021/10/05 11:39:35;;;;;;;1.63;0.85;;;17.50;73.70;;;;;;5096894;28;20028;-75
2021/10/05 11:42:04;;;;;;;1.20;0.90;;;17.50;73.80;;;;;;5096988;28;20043;-76
2021/10/05 11:44:30;;;;;;;1.73;1.10;;;17.50;73.80;;;;;;5096799;28;20062;-75
2021/10/05 11:47:05;;;;;;;3.83;0.85;;;17.50;73.90;;;;;;5096760;28;20019;-76
2021/10/05 11:49:33;;;;;;;1.40;1.00;;;17.50;73.80;;;;;;5096585;28;20058;-76
2021/10/05 11:51:59;;;;;;;2.40;0.80;;;17.50;73.70;;;;;;5115011;28;20028;-75
2021/10/05 11:54:29;;;;;;;1.55;1.00;;;17.50;73.50;;;;;;5072194;28;20203;-76
2021/10/05 11:56:58;;;;;;;1.73;0.90;;;17.50;73.40;;;;;;5072012;28;20036;-75
2021/10/05 12:02:45;;;;;;;1.48;0.88;;;17.60;73.60;;;;;;5072290;28;20167;-76
2021/10/05 12:05:22;;;;;;;1.77;0.98;;;17.50;73.70;;;;;;5072100;28;20091;-76
2021/10/05 12:07:48;;;;;;;1.40;1.10;;;17.50;73.60;;;;;;5071890;28;20075;-77
2021/10/05 12:11:06;;;;;;;2.28;1.00;;;17.50;73.40;;;;;;5071929;28;20036;-74
2021/10/05 12:13:32;;;;;;;1.50;0.80;;;17.60;73.80;;;;;;5071914;28;20029;-76
2021/10/05 12:15:57;;;;;;;0.63;0.60;;;17.50;73.30;;;;;;5071823;28;20474;-76
2021/10/05 12:18:23;;;;;;;1.63;1.02;;;17.50;73.60;;;;;;5055058;28;20655;-75
2021/10/05 12:21:05;;;;;;;2.05;1.00;;;17.50;73.50;;;;;;5071718;28;20040;-76
2021/10/05 12:26:52;;;;;;;1.25;0.90;;;17.50;73.90;;;;;;5114766;28;20034;-76
2021/10/05 12:29:18;;;;;;;0.90;0.82;;;17.40;74.10;;;;;;5092977;28;20028;-76
2021/10/05 12:31:55;;;;;;;1.42;0.80;;;17.40;74.40;;;;;;5114203;28;20042;-76
2021/10/05 12:34:32;;;;;;;1.92;0.98;;;17.40;74.40;;;;;;5095945;28;20054;-76
2021/10/05 12:36:58;;;;;;;2.08;0.82;;;17.30;74.20;;;;;;5114050;28;20443;-76
2021/10/05 12:39:23;;;;;;;2.40;0.90;;;17.40;74.20;;;;;;5095839;28;20151;-76
2021/10/05 12:41:57;;;;;;;1.13;0.85;;;17.40;74.40;;;;;;5114103;28;20028;-76
2021/10/05 12:44:23;;;;;;;1.67;0.90;;;17.40;74.30;;;;;;5113882;28;20062;-75
2021/10/05 12:47:14;;;;;;;2.42;0.93;;;17.40;74.20;;;;;;5095168;28;20448;-75
2021/10/05 12:53:05;;;;;;;1.55;0.90;;;17.40;74.10;;;;;;5112819;28;20055;-75
2021/10/05 12:55:32;;;;;;;3.88;1.00;;;17.40;74.20;;;;;;5095885;28;20016;-76
2021/10/05 12:58:00;;;;;;;1.30;0.95;;;17.40;74.10;;;;;;5095671;28;20106;-75
2021/10/05 13:00:27;;;;;;;2.60;0.95;;;17.40;74.20;;;;;;5095378;28;20034;-75
2021/10/05 13:02:53;;;;;;;1.58;0.80;;;17.30;74.30;;;;;;5095477;28;20055;-75
2021/10/05 13:05:20;;;;;;;2.30;0.98;;;17.30;74.70;;;;;;5095436;28;20028;-75
2021/10/05 13:07:47;;;;;;;1.75;0.93;;;17.20;75.00;;;;;;5095669;28;20023;-76
2021/10/05 13:10:14;;;;;;;2.15;0.90;;;17.00;75.30;;;;;;5095440;28;20035;-76
2021/10/05 13:12:41;;;;;;;1.52;0.70;;;16.90;75.60;;;;;;5095477;28;20119;-76
2021/10/05 13:15:08;;;;;;;1.27;0.68;;;16.90;75.90;;;;;;5095496;28;20043;-76
2021/10/05 13:17:34;;;;;;;1.52;0.88;;;16.90;76.20;;;;;;5095006;28;20133;-76
2021/10/05 13:20:01;;;;;;;2.45;0.90;;;16.80;76.20;;;;;;5113434;28;20072;-76
2021/10/05 13:22:26;;;;;;;2.28;0.70;;;16.80;76.40;;;;;;5095305;28;20026;-75
2021/10/05 13:24:52;;;;;;;1.48;1.00;;;16.80;76.60;;;;;;5086773;28;20530;-75
2021/10/05 13:27:18;;;;;;;1.60;0.73;;;16.70;76.70;;;;;;5095171;28;20020;-75
2021/10/05 13:29:43;;;;;;;1.48;0.70;;;16.70;76.90;;;;;;5095202;28;20044;-76
2021/10/05 13:32:09;;;;;;;3.03;0.80;;;16.70;77.10;;;;;;5095058;28;20024;-77